createdAt,value
2023-04-04T00:02:32.751Z,2.50
2023-04-04T00:07:40.521Z,2.80
2023-04-04T00:12:45.740Z,3.63
2023-04-04T00:17:50.984Z,3.15
2023-04-04T00:22:59.270Z,2.75
2023-04-04T00:28:04.335Z,2.97
2023-04-04T00:33:09.741Z,2.75
2023-04-04T00:38:17.796Z,2.83
2023-04-04T00:43:23.377Z,3.17
2023-04-04T00:48:28.819Z,2.65
2023-04-04T00:53:37.576Z,2.90
2023-04-04T00:58:42.971Z,3.03
2023-04-04T01:03:48.261Z,3.40
2023-04-04T01:08:56.247Z,2.85
2023-04-04T01:14:01.242Z,2.92
2023-04-04T01:19:07.571Z,2.72
2023-04-04T01:24:16.525Z,2.60
2023-04-04T01:29:24.192Z,2.13
2023-04-04T01:34:35.592Z,2.90
2023-04-04T01:39:46.206Z,4.38
2023-04-04T01:44:58.532Z,2.20
2023-04-04T01:50:03.871Z,2.65
2023-04-04T01:55:09.565Z,3.53
2023-04-04T02:00:18.727Z,3.13
2023-04-04T02:05:23.933Z,2.80
2023-04-04T02:10:30.216Z,3.70
2023-04-04T02:15:38.124Z,3.35
2023-04-04T02:20:43.203Z,2.95
2023-04-04T02:25:48.382Z,2.80
2023-04-04T02:30:56.189Z,3.40
2023-04-04T02:36:01.855Z,2.75
2023-04-04T02:41:06.961Z,3.05
2023-04-04T02:46:21.653Z,2.55
2023-04-04T02:51:27.616Z,3.00
2023-04-04T02:56:32.664Z,2.83
2023-04-04T03:01:40.382Z,2.70
2023-04-04T03:06:45.816Z,4.28
2023-04-04T03:11:51.991Z,3.42
2023-04-04T03:16:59.952Z,3.38
2023-04-04T03:22:05.032Z,2.97
2023-04-04T03:27:10.184Z,2.88
2023-04-04T03:32:18.462Z,3.75
2023-04-04T03:37:23.670Z,3.22
2023-04-04T03:42:29.656Z,3.25
2023-04-04T03:47:37.380Z,2.88
2023-04-04T03:52:42.976Z,3.40
2023-04-04T03:57:48.145Z,3.50
2023-04-04T04:02:55.884Z,3.17
2023-04-04T04:08:01.178Z,3.60
2023-04-04T04:13:06.283Z,3.60
2023-04-04T04:18:14.038Z,3.13
2023-04-04T04:23:19.044Z,3.35
2023-04-04T04:28:24.167Z,4.57
2023-04-04T04:33:41.947Z,4.32
2023-04-04T04:38:47.065Z,4.20
2023-04-04T04:43:52.857Z,3.33
2023-04-04T04:49:00.794Z,3.85
2023-04-04T04:54:06.049Z,2.90
2023-04-04T04:59:11.738Z,3.95
2023-04-04T05:04:20.007Z,4.00
2023-04-04T05:09:25.120Z,3.80
2023-04-04T05:14:30.339Z,2.92
2023-04-04T05:19:38.123Z,3.80
2023-04-04T05:24:45.342Z,3.83
2023-04-04T05:29:52.874Z,4.65
2023-04-04T05:35:01.399Z,3.63
2023-04-04T05:40:10.057Z,5.20
2023-04-04T05:45:18.284Z,4.63
2023-04-04T05:50:26.420Z,4.97
2023-04-04T05:55:33.581Z,4.65
2023-04-04T06:00:39.614Z,4.03
2023-04-04T06:05:52.571Z,4.00
2023-04-04T06:10:57.889Z,4.55
2023-04-04T06:16:03.841Z,4.93
2023-04-04T06:21:11.638Z,5.43
2023-04-04T06:26:17.022Z,4.53
2023-04-04T06:31:22.138Z,5.15
2023-04-04T06:36:29.826Z,5.45
2023-04-04T06:41:35.154Z,4.63
2023-04-04T06:46:43.322Z,4.63
2023-04-04T06:51:51.687Z,4.65
2023-04-04T06:56:57.208Z,4.70
2023-04-04T07:02:02.553Z,4.95
2023-04-04T07:07:10.680Z,5.10
2023-04-04T07:12:15.820Z,5.50
2023-04-04T07:17:24.828Z,5.10
2023-04-04T07:22:33.101Z,4.67
2023-04-04T07:27:41.235Z,5.15
2023-04-04T07:32:46.484Z,5.22
2023-04-04T07:37:54.253Z,4.65
2023-04-04T07:42:59.440Z,6.25
2023-04-04T07:48:04.964Z,5.40
2023-04-04T07:53:13.031Z,6.35
2023-04-04T07:58:18.160Z,6.28
2023-04-04T08:03:24.478Z,7.40
2023-04-04T08:08:32.731Z,6.22
2023-04-04T08:13:38.118Z,5.93
2023-04-04T08:18:43.408Z,6.13
2023-04-04T08:23:51.225Z,5.25
2023-04-04T08:28:56.511Z,5.18
2023-04-04T08:34:02.364Z,4.85
2023-04-04T08:39:10.124Z,4.85
2023-04-04T08:44:20.834Z,4.57
2023-04-04T08:49:27.998Z,4.43
2023-04-04T08:54:39.157Z,4.95
2023-04-04T08:59:44.435Z,6.03
2023-04-04T09:05:05.003Z,5.72
2023-04-04T09:10:14.933Z,5.80
2023-04-04T09:15:20.262Z,6.10
2023-04-04T09:20:41.111Z,5.40
2023-04-04T09:26:03.180Z,5.85
2023-04-04T09:31:11.356Z,4.90
2023-04-04T09:36:18.260Z,7.10
2023-04-04T09:41:26.572Z,6.32
2023-04-04T09:46:32.525Z,6.90
2023-04-04T09:51:39.012Z,6.05
2023-04-04T09:56:47.697Z,6.30
2023-04-04T10:01:54.078Z,5.50
2023-04-04T10:06:59.280Z,7.45
2023-04-04T10:12:15.301Z,4.90
2023-04-04T10:17:20.629Z,5.30
2023-04-04T10:22:25.847Z,5.30
2023-04-04T10:27:33.581Z,5.88
2023-04-04T10:32:47.947Z,5.85
2023-04-04T10:37:58.013Z,5.65
2023-04-04T10:43:07.722Z,5.30
2023-04-04T10:48:12.864Z,4.83
2023-04-04T10:53:18.198Z,4.60
2023-04-04T10:58:27.953Z,5.40
2023-04-04T11:03:36.283Z,5.30
2023-04-04T11:08:44.089Z,4.57
2023-04-04T11:14:04.854Z,5.22
2023-04-04T11:24:21.512Z,5.22
2023-04-04T11:29:55.548Z,5.15
2023-04-04T11:35:00.989Z,4.90
2023-04-04T11:40:14.285Z,5.72
2023-04-04T11:45:24.659Z,4.93
2023-04-04T11:55:34.855Z,5.25
2023-04-04T12:00:44.528Z,5.75
2023-04-04T12:05:51.189Z,5.53
2023-04-04T12:10:58.037Z,5.47
2023-04-04T12:16:06.123Z,6.07
2023-04-04T12:21:11.742Z,5.55
2023-04-04T12:26:16.793Z,5.72
2023-04-04T12:31:24.568Z,6.03
2023-04-04T12:36:30.088Z,5.22
2023-04-04T12:41:37.088Z,4.85
2023-04-04T12:46:47.714Z,4.88
2023-04-04T12:51:56.738Z,5.43
2023-04-04T12:57:04.476Z,5.30
2023-04-04T13:02:16.503Z,5.65
2023-04-04T13:07:25.413Z,5.72
2023-04-04T13:12:30.754Z,5.70
2023-04-04T13:17:51.616Z,4.35
2023-04-04T13:23:01.855Z,4.97
2023-04-04T13:28:07.071Z,5.78
2023-04-04T13:33:14.726Z,5.22
2023-04-04T13:38:20.154Z,4.95
2023-04-04T13:43:25.208Z,4.00
2023-04-04T13:48:33.094Z,3.80
2023-04-04T13:53:38.366Z,4.82
2023-04-04T13:58:43.508Z,4.43
2023-04-04T14:03:51.396Z,4.05
2023-04-04T14:08:56.722Z,4.35
2023-04-04T14:14:01.888Z,3.97
2023-04-04T14:19:09.726Z,3.47
2023-04-04T14:24:15.077Z,5.10
2023-04-04T14:29:20.101Z,3.88
2023-04-04T14:34:28.656Z,4.35
2023-04-04T14:39:33.726Z,4.68
2023-04-04T14:44:38.934Z,4.57
2023-04-04T14:49:46.585Z,4.47
2023-04-04T14:54:51.658Z,4.05
2023-04-04T14:59:57.241Z,4.35
2023-04-04T15:05:05.055Z,3.83
2023-04-04T15:10:11.959Z,4.63
2023-04-04T15:15:17.044Z,4.40
2023-04-04T15:20:25.132Z,4.13
2023-04-04T15:25:30.423Z,4.07
2023-04-04T15:30:35.549Z,3.63
2023-04-04T15:35:43.279Z,3.88
2023-04-04T15:40:48.415Z,5.15
2023-04-04T15:45:53.794Z,4.47
2023-04-04T15:51:04.772Z,3.58
2023-04-04T15:56:10.730Z,3.50
2023-04-04T16:01:15.910Z,4.22
2023-04-04T16:06:23.893Z,3.90
2023-04-04T16:11:28.945Z,3.72
2023-04-04T16:16:33.995Z,4.40
2023-04-04T16:21:42.000Z,5.57
2023-04-04T16:26:47.725Z,4.32
2023-04-04T16:31:52.940Z,3.58
2023-04-04T16:37:00.626Z,3.25
2023-04-04T16:42:05.864Z,3.80
2023-04-04T16:47:12.113Z,3.42
2023-04-04T16:52:20.004Z,3.65
2023-04-04T16:57:25.031Z,3.15
2023-04-04T17:02:30.316Z,5.40
2023-04-04T17:07:38.016Z,3.50
2023-04-04T17:12:43.177Z,3.20
2023-04-04T17:17:48.544Z,3.72
2023-04-04T17:22:56.280Z,3.55
2023-04-04T17:28:01.551Z,3.58
2023-04-04T17:33:06.919Z,3.78
2023-04-04T17:38:14.556Z,3.13
2023-04-04T17:43:19.750Z,3.70
2023-04-04T17:48:26.177Z,4.72
2023-04-04T17:53:36.237Z,4.82
2023-04-04T17:58:41.333Z,3.75
2023-04-04T18:03:47.050Z,2.90
2023-04-04T18:08:55.599Z,3.28
2023-04-04T18:14:00.879Z,3.25
2023-04-04T18:19:06.068Z,3.38
2023-04-04T18:24:14.592Z,4.05
2023-04-04T18:29:19.761Z,3.55
2023-04-04T18:34:24.939Z,3.47
2023-04-04T18:39:32.712Z,4.25
2023-04-04T18:44:37.884Z,3.50
2023-04-04T18:49:42.996Z,4.18
2023-04-04T18:54:50.625Z,3.95
2023-04-04T18:59:55.907Z,3.35
2023-04-04T19:05:01.887Z,4.18
2023-04-04T19:10:11.203Z,4.05
2023-04-04T19:15:16.242Z,4.25
2023-04-04T19:20:21.411Z,4.80
2023-04-04T19:25:29.285Z,3.95
2023-04-04T19:30:45.168Z,3.90
2023-04-04T19:35:53.868Z,3.60
2023-04-04T19:41:03.116Z,3.80
2023-04-04T19:46:11.626Z,3.47
2023-04-04T19:51:49.229Z,3.42
2023-04-04T19:57:01.912Z,3.30
2023-04-04T20:02:08.015Z,3.72
2023-04-04T20:07:13.796Z,3.80
2023-04-04T20:12:22.173Z,3.60
2023-04-04T20:17:27.320Z,4.25
2023-04-04T20:22:32.599Z,3.35
2023-04-04T20:27:40.571Z,2.97
2023-04-04T20:32:47.055Z,2.92
2023-04-04T20:37:52.259Z,4.38
2023-04-04T20:43:00.000Z,2.95
2023-04-04T20:48:07.341Z,4.05
2023-04-04T20:53:18.804Z,2.97
2023-04-04T20:58:32.311Z,3.10
2023-04-04T21:03:40.555Z,3.10
2023-04-04T21:08:47.777Z,3.58
2023-04-04T21:13:55.589Z,3.97
2023-04-04T21:19:02.295Z,3.17
2023-04-04T21:24:10.415Z,3.80
2023-04-04T21:29:24.714Z,3.97
2023-04-04T21:34:30.889Z,4.07
2023-04-04T21:39:40.241Z,3.53
2023-04-04T21:44:49.074Z,3.28
2023-04-04T21:49:54.169Z,7.97
2023-04-04T21:54:59.310Z,4.15
2023-04-04T22:00:09.997Z,3.10
2023-04-04T22:05:15.010Z,2.97
2023-04-04T22:10:23.079Z,3.33
2023-04-04T22:15:31.778Z,3.65
2023-04-04T22:20:36.891Z,3.47
2023-04-04T22:25:42.209Z,3.67
2023-04-04T22:30:49.913Z,3.20
2023-04-04T22:35:55.032Z,4.00
2023-04-04T22:41:01.027Z,4.20
2023-04-04T22:46:09.921Z,3.00
2023-04-04T22:51:15.610Z,3.53
2023-04-04T22:56:21.896Z,2.55
2023-04-04T23:01:29.753Z,2.95
2023-04-04T23:06:34.829Z,2.90
2023-04-04T23:11:41.899Z,2.58
2023-04-04T23:16:52.817Z,2.72
2023-04-04T23:21:58.455Z,2.60
2023-04-04T23:27:03.595Z,3.00
2023-04-04T23:32:11.681Z,2.85
2023-04-04T23:37:16.890Z,2.95
2023-04-04T23:42:22.054Z,2.28
2023-04-04T23:47:29.749Z,2.85
2023-04-04T23:52:35.423Z,2.55
2023-04-04T23:57:40.846Z,2.83
